Station: Lord Howe Island  

  Atmospheric Gas Attenuation - ITU Rec 676-11   ----------------- dB/100km -----------------
Date Time Temp RH % AH g/m3 Dew Point Wind Direction Speed kph Gust kph Barometer mB Rainfall Since 9am 24GHz 47GHz 76GHz 122GHz 134GHz 241GHz
08/05 12:30 21.6 57 10.81 12.7 37 43 1012.4 0 23.9 27.1 44.4 116.8 116.3 402.1
08/05 12:20 21.6 58 11 13.2 35 43 1012.4 0 24.3 27.4 45.1 118.8 118.7 410.7
08/05 12:10 21.6 58 11 13.2 37 44 1012.5 0 24.3 27.4 45.1 118.8 118.8 410.7
08/05 12:00 21.2 59 10.93 12.9 35 43 1012.6 0 24.2 27.4 45.1 118.6 118.5 409.7
08/05 11:50 21.2 55 10.19 11.8 35 43 1012.7 0 22.6 26.2 42.2 111.0 109.0 376.6
08/05 11:40 21.3 54 10.06 11.6 30 37 1012.8 0 22.3 26.0 41.7 109.5 107.3 370.5
08/05 11:30 21.1 56 10.32 12 33 39 1012.9 0 22.9 26.5 42.8 112.5 110.8 382.9
08/05 11:20 21.1 61 11.24 13.3 33 41 1013 0 24.8 27.9 46.4 122.1 122.7 424.4
08/05 11:10 20.5 59 10.5 12.2 30 35 1013 0 23.3 26.9 43.8 115.2 114.0 394.0
08/05 11:00 20.5 60 10.68 12.5 32 35 1013.2 0 23.7 27.2 44.5 117.1 116.3 402.1
08/05 10:50 20.7 60 10.8 12.7 28 35 1013.3 0 23.9 27.4 44.9 118.1 117.6 406.6
08/05 10:40 20.6 63 11.27 13.3 22 32 1013.3 0 24.9 28.2 46.8 123.2 123.9 428.6
08/05 10:30 20.6 65 11.63 13.8 28 35 1013.3 0 25.7 28.7 48.3 127.1 128.7 445.3
08/05 10:20 21.1 64 11.79 14 26 32 1013.4 0 26.0 28.8 48.6 128.1 130.0 449.9
08/05 10:10 20.9 62 11.29 13.4 32 39 1013.4 0 24.9 28.1 46.7 123.0 123.7 427.9
08/05 10:00 20.2 63 11.01 12.9 32 43 1013.4 0 24.4 27.9 46.0 121.1 121.1 418.8
08/05 09:50 20.6 66 11.81 14 26 37 1013.5 0 26.0 29.0 49.0 129.1 131.1 453.7
08/05 09:40 20.3 67 11.78 14 20 28 1013.4 0 26.0 29.1 49.1 129.3 131.2 454.0
08/05 09:30 20 69 11.92 14.1 20 28 1013.5 0 26.3 29.4 49.8 131.3 133.6 462.4
08/05 09:20 20.1 67 11.65 13.8 30 37 1013.4 0 25.7 28.9 48.7 128.2 129.8 449.1
08/05 09:10 20.3 59 10.38 12 28 39 1013.4 0 23.0 26.8 43.5 114.3 112.8 389.7
08/05 09:00 20.1 64 11.12 13.1 30 37 1013.4 0 24.6 28.1 46.5 122.4 122.7 424.4
08/05 08:50 20.1 67 11.65 13.8 24 35 1013.2 2 25.7 28.9 48.6 128.1 129.8 449.0
08/05 08:40 19.9 67 11.51 13.6 24 35 1013.2 2 25.5 28.8 48.2 126.9 128.2 443.6
08/05 08:30 20 71 12.27 14.6 30 33 1013.1 2 27.1 30.0 51.3 135.1 138.4 479.0
08/05 08:20 20 65 11.23 13.2 30 37 1012.9 2 24.9 28.3 47.0 123.7 124.3 429.9
08/05 08:10 19.8 64 10.93 12.8 26 39 1012.9 2 24.2 27.8 45.9 120.8 120.6 417.1
08/05 08:00 19.9 61 10.48 12.2 26 46 1012.9 2 23.3 27.1 44.0 115.9 114.6 396.0
08/05 07:50 19.7 61 10.36 12 28 39 1012.8 2 23.0 27.0 43.7 114.9 113.3 391.5
08/05 07:40 19.5 63 10.57 12.3 37 46 1012.8 2 23.5 27.3 44.6 117.4 116.4 402.1
08/05 07:30 19.6 67 11.31 13.3 32 50 1012.6 2 25.1 28.5 47.5 125.2 126.0 435.7
08/05 07:20 19.6 66 11.14 13.1 33 46 1012.5 2 24.7 28.2 46.8 123.3 123.7 427.8
08/05 07:10 19.3 69 11.44 13.5 26 37 1012.6 2 25.3 28.8 48.2 127.1 128.2 443.5
08/05 07:00 18.8 69 11.11 13 32 54 1012.5 2 24.7 28.4 47.2 124.3 124.6 430.7
08/05 06:50 19.5 64 10.74 12.5 37 50 1012.3 2 23.8 27.6 45.3 119.2 118.6 409.7
08/05 06:40 19.3 62 10.28 11.8 35 44 1012.3 2 22.9 26.9 43.6 114.6 112.8 389.7
08/05 06:30 19.2 63 10.39 12 35 57 1012.3 2 23.1 27.1 44.0 115.9 114.4 395.3
08/05 06:20 18.8 66 10.63 12.3 37 50 1012.3 2 23.7 27.6 45.2 119.0 118.2 408.3
08/05 06:10 19 71 11.57 13.6 37 48 1012.1 2 25.6 29.1 48.9 128.9 130.4 451.2
08/05 06:00 19.2 64 10.55 12.2 39 54 1012 2 23.5 27.4 44.7 117.5 116.5 402.5
08/05 05:50 19 71 11.57 13.6 37 52 1011.9 2 25.6 29.1 48.9 128.9 130.4 451.1
08/05 05:40 19 71 11.57 13.6 35 46 1012 2 25.6 29.1 48.9 128.9 130.4 451.2
08/05 05:30 18.6 69 10.98 12.8 39 57 1011.7 2 24.4 28.3 46.7 123.1 123.1 425.5
08/05 05:20 18.8 69 11.11 13 39 54 1011.6 2 24.7 28.4 47.2 124.2 124.5 430.4
08/05 05:10 18.6 65 10.34 11.9 46 56 1011.6 2 23.1 27.2 44.2 116.2 114.6 395.8
08/05 05:00 19.2 63 10.39 12 43 65 1011.3 2 23.1 27.1 44.0 115.8 114.3 394.9
08/05 04:50 19.2 66 10.88 12.7 43 61 1011.2 2 24.2 27.9 46.0 121.0 120.8 417.4
08/05 04:40 19.1 66 10.82 12.6 37 50 1011.3 2 24.0 27.8 45.8 120.5 120.1 415.2
08/05 04:30 18.9 69 11.18 13.1 39 59 1011.4 2 24.8 28.5 47.4 124.7 125.3 433.1
08/05 04:20 19.1 67 10.98 12.8 39 50 1011.3 2 24.4 28.1 46.4 122.2 122.3 422.6
08/05 04:10 19 66 10.75 12.5 35 52 1011.3 2 23.9 27.7 45.6 119.9 119.4 412.5
08/05 04:00 19 61 9.94 11.3 39 57 1011.3 2 22.2 26.4 42.3 111.3 108.8 375.5
08/05 03:50 19.1 64 10.49 12.1 46 59 1011.3 2 23.3 27.3 44.5 117.0 115.8 400.0
08/05 03:40 18.8 62 9.98 11.4 43 52 1011.4 2 22.3 26.6 42.6 112.0 109.6 378.3
08/05 03:30 18.7 63 10.09 11.5 46 63 1011.3 2 22.5 26.8 43.1 113.3 111.1 383.8
08/05 03:20 18.6 62 9.87 11.2 44 54 1011.4 2 22.1 26.5 42.3 111.2 108.4 374.3
08/05 03:10 18.8 65 10.47 12.1 39 48 1011.4 2 23.3 27.4 44.6 117.2 116.0 400.7
08/05 03:00 18.7 60 9.61 10.8 41 57 1011.4 2 21.5 26.0 41.2 108.3 105.0 362.1
08/05 02:50 18.7 63 10.09 11.5 41 50 1011.4 2 22.5 26.8 43.1 113.3 111.2 383.8
08/05 02:40 18.7 61 9.77 11 37 44 1011.4 2 21.8 26.3 41.8 110.0 107.0 369.3
08/05 02:30 18.7 62 9.93 11.3 46 63 1011.3 2 22.2 26.5 42.5 111.6 109.1 376.5
08/05 02:20 18.6 59 9.39 10.4 50 59 1011.4 2 21.0 25.7 40.4 106.2 102.3 352.8
08/05 02:10 18.7 55 8.8 9.5 41 50 1011.4 2 19.8 24.8 38.1 100.0 94.8 326.4
08/05 02:00 18.8 56 9.02 9.8 43 61 1011.3 2 20.2 25.1 38.9 102.1 97.4 335.6
08/05 01:50 19 53 8.64 9.2 41 59 1011.4 2 19.4 24.4 37.4 98.0 92.4 318.3
08/05 01:40 18.8 57 9.18 10.1 43 52 1011.6 2 20.6 25.3 39.5 103.8 99.4 342.7
08/05 01:30 18.8 57 9.18 10.1 44 59 1011.8 2 20.6 25.3 39.5 103.8 99.4 342.7
08/05 01:20 18.7 57 9.13 10 48 59 1011.8 2 20.5 25.3 39.4 103.4 98.9 341.0
08/05 01:10 18.5 56 8.86 9.6 48 59 1011.9 2 19.9 24.9 38.5 100.9 95.8 330.0
08/05 01:00 18.3 64 10.01 11.4 48 65 1012 2 22.4 26.8 43.0 113.1 110.7 382.3
08/05 00:50 18.2 68 10.57 12.2 48 67 1012 2 23.6 27.7 45.3 119.3 118.3 408.6
08/05 00:40 18.8 63 10.15 11.6 46 57 1011.9 2 22.6 26.9 43.3 113.9 111.8 386.2
08/05 00:20 19.1 70 11.47 13.5 46 59 1011.6 2 25.4 28.9 48.4 127.6 128.9 445.7
08/05 00:10 19.1 67 10.98 12.8 52 65 1011.7 2 24.4 28.1 46.4 122.3 122.3 422.8
08/05 00:00 18.9 68 11.02 12.9 52 70 1011.5 2 24.5 28.2 46.7 123.0 123.1 425.7
07/05 23:50 18.8 70 11.27 13.2 56 65 1011.4 2 25.0 28.7 47.8 125.9 126.6 437.9
07/05 23:40 19.3 75 12.44 14.8 56 67 1011.2 2 27.5 30.5 52.4 138.0 141.8 490.9
07/05 23:30 19.5 75 12.59 15 52 72 1010.9 2 27.8 30.6 52.8 139.3 143.5 496.8
07/05 23:20 20.2 72 12.59 15 52 61 1010.7 2 27.7 30.4 52.4 138.1 142.1 492.2
07/05 23:10 20.3 72 12.66 15.1 48 57 1010.6 2 27.9 30.5 52.6 138.7 142.9 494.9
07/05 23:00 20.7 67 12.06 14.4 46 63 1010.5 2 26.6 29.3 49.8 131.3 134.0 463.8
07/05 22:50 21 70 12.82 15.3 41 48 1010.5 2 28.2 30.5 52.8 139.2 143.8 498.1
07/05 22:40 21 69 12.64 15.1 46 56 1010.4 2 27.8 30.2 52.0 137.2 141.3 489.4
07/05 22:30 21 73 13.37 16 44 54 1010.4 2 29.3 31.4 55.1 145.4 151.4 524.6
07/05 22:20 21.1 77 14.19 16.9 39 44 1010.3 2 31.1 32.8 58.6 154.6 162.8 564.3
07/05 22:10 21 81 14.84 17.6 39 44 1010.4 2 32.5 34.0 61.5 162.5 172.4 597.9
07/05 22:00 20.7 86 15.48 18.3 33 41 1010.3 2 33.9 35.3 64.6 170.8 182.5 633.2
07/05 21:50 20.6 90 16.11 18.9 32 35 1010.4 2 35.2 36.5 67.6 178.8 192.3 667.1
07/05 21:40 20.3 90 15.83 18.6 30 33 1010.5 2 34.7 36.1 66.6 176.0 188.8 655.0
07/05 21:30 20.2 90 15.74 18.5 32 39 1010.5 2 34.5 36.0 66.3 175.1 187.7 651.1
07/05 21:20 20 91 15.73 18.5 33 37 1010.6 2 34.5 36.0 66.4 175.5 188.1 652.3
07/05 21:10 19.9 91 15.63 18.4 32 35 1010.9 1.8 34.3 35.9 66.1 174.5 186.9 648.1
07/05 21:00 19.7 90 15.28 18 33 41 1011.1 1.8 33.5 35.3 64.6 170.7 182.1 631.4
07/05 20:50 19.9 85 14.6 17.3 35 52 1011.2 1.6 32.1 34.0 61.4 162.0 171.5 594.5
07/05 20:40 22.3 81 15.99 18.9 24 30 1010.7 0 34.8 35.5 65.6 173.4 186.3 646.3
07/05 20:30 22.3 81 15.99 18.9 20 30 1010.6 0 34.8 35.5 65.6 173.4 186.2 646.3
07/05 20:20 22.3 81 15.99 18.9 22 28 1011 0 34.8 35.6 65.6 173.5 186.3 646.5
07/05 20:10 22.2 82 16.1 19 15 20 1010.9 0 35.1 35.8 66.2 175.0 188.2 652.9
07/05 20:00 22.1 82 16.01 18.9 15 26 1010.8 0 34.9 35.7 65.9 174.1 187.1 649.1
07/05 19:50 22.1 82 16.01 18.9 17 22 1010.7 0 34.9 35.7 65.9 174.1 187.0 649.0

Last Refresh: 08-May-2026 12:08:30

Bureau of Meteorology